Time;durP1;ratioP1;P1;durP2;ratioP2;P2;SDS_P1;SDS_P2;PMS_P1;PMS_P2;Temp;Humidity;BMP_temperature;BMP_pressure;BME280_temperature;BME280_humidity;BME280_pressure;Samples;Min_cycle;Max_cycle;Signal;HPM_P1;HPM_P2
2022/12/12 00:02:20;;;;;;;;;;;;;;;21.68;35.56;100408.75;7247359;19;153912;-56
2022/12/12 00:04:47;;;;;;;;;;;;;;;21.68;35.58;100411.56;7246308;19;152891;-56
2022/12/12 00:07:14;;;;;;;;;;;;;;;21.67;35.69;100412.72;7239680;19;154514;-56
2022/12/12 00:09:44;;;;;;;;;;;;;;;21.67;35.36;100407.09;7245648;19;152948;-56
2022/12/12 00:12:11;;;;;;;;;;;;;;;21.67;35.46;100403.47;7241511;19;153536;-56
2022/12/12 00:14:38;;;;;;;;;;;;;;;21.66;35.69;100408.28;7246393;19;154620;-56
2022/12/12 00:17:05;;;;;;;;;;;;;;;21.64;35.27;100407.78;7248145;19;154909;-56
2022/12/12 00:19:32;;;;;;;;;;;;;;;21.65;35.67;100411.41;7251906;19;153401;-56
2022/12/12 00:21:59;;;;;;;;;;;;;;;21.63;35.59;100417.34;7253206;19;153455;-56
2022/12/12 00:24:26;;;;;;;;;;;;;;;21.62;35.64;100423.31;7248651;19;153213;-56
2022/12/12 00:26:53;;;;;;;;;;;;;;;21.60;35.37;100420.84;7247872;19;154377;-56
2022/12/12 00:29:20;;;;;;;;;;;;;;;21.59;35.32;100419.16;7251101;19;154005;-57
2022/12/12 00:31:48;;;;;;;;;;;;;;;21.57;35.02;100423.47;7249200;19;152711;-56
2022/12/12 00:34:15;;;;;;;;;;;;;;;21.54;35.41;100416.50;7248818;19;154098;-56
2022/12/12 00:36:42;;;;;;;;;;;;;;;21.54;35.04;100433.38;7243679;19;154568;-56
2022/12/12 00:39:08;;;;;;;;;;;;;;;21.52;35.29;100430.09;7250332;19;154324;-56
2022/12/12 00:41:43;;;;;;;;;;;;;;;21.49;35.21;100441.13;7244534;19;155010;-56
2022/12/12 00:44:10;;;;;;;;;;;;;;;21.46;35.47;100442.63;7256170;19;154743;-56
2022/12/12 00:46:37;;;;;;;;;;;;;;;21.45;35.00;100440.13;7247332;19;153482;-57
2022/12/12 00:49:04;;;;;;;;;;;;;;;21.41;35.27;100439.97;7249066;19;153496;-57
2022/12/12 00:51:30;;;;;;;;;;;;;;;21.37;35.41;100444.59;7246481;19;153319;-56
2022/12/12 00:53:57;;;;;;;;;;;;;;;21.35;35.23;100441.25;7247107;19;153755;-57
2022/12/12 00:56:24;;;;;;;;;;;;;;;21.33;35.37;100440.78;7248729;19;154696;-56
2022/12/12 00:58:51;;;;;;;;;;;;;;;21.30;35.30;100433.00;7249285;19;152742;-56
2022/12/12 01:01:22;;;;;;;;;;;;;;;21.27;35.53;100437.28;7249189;19;156048;-57
2022/12/12 01:03:49;;;;;;;;;;;;;;;21.24;35.24;100434.31;7248623;19;154420;-56
2022/12/12 01:06:16;;;;;;;;;;;;;;;21.20;35.52;100436.94;7254258;19;153729;-56
2022/12/12 01:08:43;;;;;;;;;;;;;;;21.17;35.44;100434.75;7249397;19;154241;-56
2022/12/12 01:11:11;;;;;;;;;;;;;;;21.13;35.59;100430.13;7248663;19;154467;-56
2022/12/12 01:13:37;;;;;;;;;;;;;;;21.10;36.05;100433.56;7245377;19;154308;-55
2022/12/12 01:16:04;;;;;;;;;;;;;;;21.07;35.71;100440.66;7249839;19;152418;-56
2022/12/12 01:18:32;;;;;;;;;;;;;;;21.04;35.97;100438.50;7248731;19;155312;-55
2022/12/12 01:20:58;;;;;;;;;;;;;;;21.01;35.74;100441.97;7244195;19;154326;-56
2022/12/12 01:23:25;;;;;;;;;;;;;;;20.98;36.15;100456.66;7248724;19;153758;-55
2022/12/12 01:26:18;;;;;;;;;;;;;;;20.94;35.73;100450.00;7248422;19;154742;-55
2022/12/12 01:28:45;;;;;;;;;;;;;;;20.90;35.93;100457.41;7252782;19;154578;-56
2022/12/12 01:31:12;;;;;;;;;;;;;;;20.87;36.21;100452.47;7247454;19;153757;-56
2022/12/12 01:33:39;;;;;;;;;;;;;;;20.82;36.18;100461.84;7244157;19;154042;-60
2022/12/12 01:36:05;;;;;;;;;;;;;;;20.78;36.35;100460.84;7243034;19;154940;-56
2022/12/12 01:38:32;;;;;;;;;;;;;;;20.74;36.10;100457.03;7248403;19;155014;-57
2022/12/12 01:40:59;;;;;;;;;;;;;;;20.71;36.17;100456.84;7243612;19;154394;-56
2022/12/12 01:43:28;;;;;;;;;;;;;;;20.66;36.44;100457.81;7248266;19;152058;-55
2022/12/12 01:45:57;;;;;;;;;;;;;;;20.62;36.13;100464.38;7246872;19;154556;-57
2022/12/12 01:48:26;;;;;;;;;;;;;;;20.57;36.42;100468.16;7247366;19;154242;-56
2022/12/12 01:50:54;;;;;;;;;;;;;;;20.52;36.43;100464.66;7252209;19;154403;-56
2022/12/12 01:53:20;;;;;;;;;;;;;;;20.50;36.09;100480.97;7244855;19;155939;-55
2022/12/12 01:55:48;;;;;;;;;;;;;;;20.46;36.46;100477.97;7246122;19;152371;-55
2022/12/12 01:58:15;;;;;;;;;;;;;;;20.44;36.11;100477.47;7247691;19;156205;-56
2022/12/12 02:00:42;;;;;;;;;;;;;;;20.40;36.23;100470.81;7244560;19;155696;-56
2022/12/12 02:03:08;;;;;;;;;;;;;;;20.36;36.20;100483.84;7247516;19;152756;-56
2022/12/12 02:05:38;;;;;;;;;;;;;;;20.30;36.21;100485.97;7243169;19;154804;-55
2022/12/12 02:08:07;;;;;;;;;;;;;;;20.25;36.65;100479.59;7243400;19;154573;-55
2022/12/12 02:10:34;;;;;;;;;;;;;;;20.21;36.33;100482.22;7252579;19;153926;-55
2022/12/12 02:13:04;;;;;;;;;;;;;;;20.16;36.51;100479.53;7245762;19;153954;-55
2022/12/12 02:15:38;;;;;;;;;;;;;;;20.14;36.58;100493.03;7248018;19;153549;-55
2022/12/12 02:18:23;;;;;;;;;;;;;;;20.07;36.74;100489.84;7245218;19;154059;-55
2022/12/12 02:21:11;;;;;;;;;;;;;;;20.01;36.48;100496.72;7244639;19;154209;-56
2022/12/12 02:24:13;;;;;;;;;;;;;;;19.98;36.78;100501.00;7247055;19;153686;-55
2022/12/12 02:26:48;;;;;;;;;;;;;;;19.95;36.80;100506.38;7239576;19;153756;-55
2022/12/12 02:29:31;;;;;;;;;;;;;;;19.89;36.86;100500.09;7242319;19;156387;-55
2022/12/12 02:32:07;;;;;;;;;;;;;;;19.86;36.47;100506.31;7245267;19;154413;-55
2022/12/12 02:34:42;;;;;;;;;;;;;;;19.81;36.84;100503.59;7253681;19;154199;-55
2022/12/12 02:37:14;;;;;;;;;;;;;;;19.77;36.59;100505.38;7240366;19;152799;-55
2022/12/12 02:39:42;;;;;;;;;;;;;;;19.71;37.05;100506.66;7246657;19;154449;-54
2022/12/12 02:42:15;;;;;;;;;;;;;;;19.66;37.02;100505.94;7244733;19;155749;-55
2022/12/12 02:44:44;;;;;;;;;;;;;;;19.62;37.06;100502.94;7246737;19;153491;-55
2022/12/12 02:47:14;;;;;;;;;;;;;;;19.60;36.92;100507.19;7243445;19;153393;-55
2022/12/12 02:49:48;;;;;;;;;;;;;;;19.58;37.04;100495.47;7245074;19;153317;-55
2022/12/12 02:52:15;;;;;;;;;;;;;;;19.52;37.23;100497.53;7238178;19;153764;-55
2022/12/12 02:54:42;;;;;;;;;;;;;;;19.49;36.96;100495.34;7246910;19;154641;-55
2022/12/12 02:57:17;;;;;;;;;;;;;;;19.45;37.26;100489.53;7251484;19;153941;-55
2022/12/12 03:00:08;;;;;;;;;;;;;;;19.41;37.32;100494.09;7244647;19;155780;-55
2022/12/12 03:07:45;;;;;;;;;;;;;;;19.35;37.10;100503.72;7241964;19;154357;-55
2022/12/12 03:08:41;;;;;;;;;;;;;;;19.28;37.20;100496.88;7246107;19;154932;-55
2022/12/12 03:11:13;;;;;;;;;;;;;;;19.26;37.59;100493.59;7242248;19;154656;-55
2022/12/12 03:13:51;;;;;;;;;;;;;;;19.24;37.44;100493.06;7243400;19;153045;-55
2022/12/12 03:16:24;;;;;;;;;;;;;;;19.22;37.32;100486.91;7241084;19;153778;-55
2022/12/12 03:18:54;;;;;;;;;;;;;;;19.20;37.73;100492.84;7242088;19;154404;-55
2022/12/12 03:21:28;;;;;;;;;;;;;;;19.19;37.31;100490.34;7248869;19;153071;-55
2022/12/12 03:23:58;;;;;;;;;;;;;;;19.15;37.36;100489.31;7243451;19;153805;-55
2022/12/12 03:26:30;;;;;;;;;;;;;;;19.10;37.73;100499.47;7244271;19;153759;-55
2022/12/12 03:29:05;;;;;;;;;;;;;;;19.07;37.37;100502.91;7245189;19;153457;-55
2022/12/12 03:31:33;;;;;;;;;;;;;;;19.01;37.54;100506.09;7241510;19;154678;-55
2022/12/12 03:34:03;;;;;;;;;;;;;;;19.00;37.82;100499.66;7241684;19;154525;-55
2022/12/12 03:36:35;;;;;;;;;;;;;;;18.96;37.80;100497.78;7241362;19;154009;-55
2022/12/12 03:39:12;;;;;;;;;;;;;;;18.93;37.65;100498.41;7241323;19;154231;-55
2022/12/12 03:41:42;;;;;;;;;;;;;;;18.86;37.66;100496.00;7243527;19;153866;-55
2022/12/12 03:44:34;;;;;;;;;;;;;;;18.84;37.91;100497.47;7249351;19;154499;-55
2022/12/12 03:47:10;;;;;;;;;;;;;;;18.81;38.12;100501.69;7243903;19;154239;-55
2022/12/12 03:49:47;;;;;;;;;;;;;;;18.79;38.06;100514.34;7245884;19;154647;-55
2022/12/12 03:52:24;;;;;;;;;;;;;;;18.76;38.15;100512.19;7244683;19;153818;-56
2022/12/12 03:55:00;;;;;;;;;;;;;;;18.73;38.11;100513.59;7251924;19;153938;-56
2022/12/12 03:57:31;;;;;;;;;;;;;;;18.64;38.28;100505.09;7249981;19;155076;-55
2022/12/12 04:00:01;;;;;;;;;;;;;;;18.60;37.92;100504.03;7250898;19;155844;-56
2022/12/12 04:02:36;;;;;;;;;;;;;;;18.59;38.08;100509.94;7249175;19;152652;-56
2022/12/12 04:05:14;;;;;;;;;;;;;;;18.58;38.44;100503.50;7251101;19;153776;-55
2022/12/12 04:07:43;;;;;;;;;;;;;;;18.54;38.20;100508.06;7251231;19;154471;-55
2022/12/12 04:13:14;;;;;;;;;;;;;;;18.46;38.28;100507.88;7248606;19;153417;-55
2022/12/12 04:16:01;;;;;;;;;;;;;;;18.42;38.29;100521.66;7249593;19;154162;-55
2022/12/12 04:18:33;;;;;;;;;;;;;;;18.39;38.36;100516.69;7250651;19;153230;-55
2022/12/12 04:24:10;;;;;;;;;;;;;;;18.33;38.80;100519.84;7251578;19;154456;-55
2022/12/12 04:26:39;;;;;;;;;;;;;;;18.28;38.75;100523.56;7248898;19;153880;-55
2022/12/12 04:29:06;;;;;;;;;;;;;;;18.27;38.71;100521.91;7257360;19;153729;-55
2022/12/12 04:31:35;;;;;;;;;;;;;;;18.27;38.93;100526.66;7249354;19;154508;-55
2022/12/12 04:34:05;;;;;;;;;;;;;;;18.25;38.66;100528.94;7248178;19;154064;-55
2022/12/12 04:36:33;;;;;;;;;;;;;;;18.21;39.11;100528.72;7246338;19;154047;-56
2022/12/12 04:39:01;;;;;;;;;;;;;;;18.18;38.92;100532.94;7249591;19;154293;-56
2022/12/12 04:41:30;;;;;;;;;;;;;;;18.14;38.66;100533.84;7246868;19;155131;-56
2022/12/12 04:43:58;;;;;;;;;;;;;;;18.12;39.08;100533.34;7246962;19;152480;-55
2022/12/12 04:46:27;;;;;;;;;;;;;;;18.11;39.08;100542.84;7242847;19;153776;-56
2022/12/12 04:48:57;;;;;;;;;;;;;;;18.09;38.84;100537.53;7245873;19;154614;-54
2022/12/12 04:51:28;;;;;;;;;;;;;;;18.05;39.04;100535.66;7250451;19;153187;-54
2022/12/12 04:54:12;;;;;;;;;;;;;;;18.05;38.80;100539.28;7245822;19;153717;-54
2022/12/12 04:56:43;;;;;;;;;;;;;;;18.01;38.89;100531.81;7247898;19;154284;-54
2022/12/12 04:59:09;;;;;;;;;;;;;;;17.97;39.25;100531.59;7247913;19;156038;-54
2022/12/12 05:01:54;;;;;;;;;;;;;;;17.95;39.10;100533.84;7247176;19;154253;-55
2022/12/12 05:04:37;;;;;;;;;;;;;;;17.92;39.36;100536.41;7249936;19;153537;-55
2022/12/12 05:07:08;;;;;;;;;;;;;;;17.89;39.14;100546.25;7244751;19;154838;-55
2022/12/12 05:09:35;;;;;;;;;;;;;;;17.88;39.16;100538.97;7247419;19;154530;-55
2022/12/12 05:12:02;;;;;;;;;;;;;;;17.86;39.30;100540.38;7248392;19;154535;-55
2022/12/12 05:14:29;;;;;;;;;;;;;;;17.84;39.33;100551.06;7253686;19;155478;-55
2022/12/12 05:16:59;;;;;;;;;;;;;;;17.80;39.34;100539.66;7246568;19;154192;-56
2022/12/12 05:19:26;;;;;;;;;;;;;;;17.78;39.17;100539.09;7249900;19;153463;-55
2022/12/12 05:21:53;;;;;;;;;;;;;;;17.75;39.42;100542.50;7243904;19;155311;-55
2022/12/12 05:24:20;;;;;;;;;;;;;;;17.73;39.07;100548.38;7247477;19;152899;-55
2022/12/12 05:26:46;;;;;;;;;;;;;;;17.72;39.40;100548.69;7246277;19;154688;-55
2022/12/12 05:29:13;;;;;;;;;;;;;;;17.70;39.18;100545.38;7246041;19;152388;-55
2022/12/12 05:31:40;;;;;;;;;;;;;;;17.66;39.32;100544.31;7246941;19;153417;-55
2022/12/12 05:34:06;;;;;;;;;;;;;;;17.67;39.41;100544.00;7248212;19;152733;-55
2022/12/12 05:36:43;;;;;;;;;;;;;;;17.65;39.35;100553.81;7252931;19;153495;-55
2022/12/12 05:39:09;;;;;;;;;;;;;;;17.63;39.69;100558.84;7251170;19;154334;-55
2022/12/12 05:41:36;;;;;;;;;;;;;;;17.61;39.24;100555.53;7245566;19;154349;-55
2022/12/12 05:44:03;;;;;;;;;;;;;;;17.59;39.57;100552.19;7247561;19;155166;-55
2022/12/12 05:46:29;;;;;;;;;;;;;;;17.56;39.42;100562.00;7245963;19;154039;-55
2022/12/12 05:48:56;;;;;;;;;;;;;;;17.55;39.43;100559.47;7244539;19;155135;-55
2022/12/12 05:51:23;;;;;;;;;;;;;;;17.53;39.45;100564.56;7242889;19;155113;-55
2022/12/12 05:53:50;;;;;;;;;;;;;;;17.51;39.60;100561.22;7246808;19;153564;-55
2022/12/12 05:56:16;;;;;;;;;;;;;;;17.50;39.66;100562.34;7244878;19;154701;-55
2022/12/12 05:58:43;;;;;;;;;;;;;;;17.47;39.76;100560.16;7254881;19;153263;-55
2022/12/12 06:01:10;;;;;;;;;;;;;;;17.45;39.84;100562.38;7245150;19;155338;-55
2022/12/12 06:03:37;;;;;;;;;;;;;;;17.43;39.78;100570.25;7247843;19;153071;-55
2022/12/12 06:06:03;;;;;;;;;;;;;;;17.41;39.49;100570.53;7244504;19;153542;-55
2022/12/12 06:08:30;;;;;;;;;;;;;;;17.38;39.87;100565.56;7245587;19;153033;-55
2022/12/12 06:10:57;;;;;;;;;;;;;;;17.36;39.84;100576.19;7245652;19;153695;-56
2022/12/12 06:13:23;;;;;;;;;;;;;;;17.33;40.01;100585.16;7244787;19;153816;-55
2022/12/12 06:15:50;;;;;;;;;;;;;;;17.33;39.87;100585.16;7245149;19;154619;-55
2022/12/12 06:18:17;;;;;;;;;;;;;;;17.34;39.96;100575.66;7246067;19;154339;-55
2022/12/12 06:20:44;;;;;;;;;;;;;;;17.39;39.83;100581.19;7251856;19;153367;-55
2022/12/12 06:23:10;;;;;;;;;;;;;;;17.44;40.06;100583.09;7245279;19;152359;-55
2022/12/12 06:25:37;;;;;;;;;;;;;;;17.49;40.31;100586.63;7245839;19;153331;-56
2022/12/12 06:28:04;;;;;;;;;;;;;;;17.52;40.16;100588.03;7245521;19;153387;-55
2022/12/12 06:30:30;;;;;;;;;;;;;;;17.54;40.13;100591.34;7244997;19;153230;-55
2022/12/12 06:32:57;;;;;;;;;;;;;;;17.57;40.19;100588.81;7246496;19;153322;-55
2022/12/12 06:35:23;;;;;;;;;;;;;;;17.60;40.18;100587.41;7244139;19;153857;-55
2022/12/12 06:37:50;;;;;;;;;;;;;;;17.63;40.53;100572.81;7241241;19;153574;-56
2022/12/12 06:40:17;;;;;;;;;;;;;;;17.67;40.76;100580.31;7253208;19;153817;-55
2022/12/12 06:42:43;;;;;;;;;;;;;;;17.72;40.68;100576.63;7243447;19;152846;-55
2022/12/12 06:45:14;;;;;;;;;;;;;;;17.77;40.87;100577.41;7244451;19;153714;-56
2022/12/12 06:47:41;;;;;;;;;;;;;;;17.82;40.79;100573.69;7244021;19;156177;-55
2022/12/12 06:50:08;;;;;;;;;;;;;;;17.87;41.07;100578.41;7245715;19;152429;-55
2022/12/12 06:52:35;;;;;;;;;;;;;;;17.92;41.12;100579.16;7241223;19;154740;-55
2022/12/12 06:55:02;;;;;;;;;;;;;;;17.98;40.83;100571.56;7244006;19;153721;-56
2022/12/12 06:57:29;;;;;;;;;;;;;;;18.05;41.05;100574.78;7238378;19;152716;-56
2022/12/12 06:59:56;;;;;;;;;;;;;;;18.09;40.92;100568.28;7243468;19;153461;-56
2022/12/12 07:02:22;;;;;;;;;;;;;;;18.15;40.69;100574.66;7249273;19;153782;-55
2022/12/12 07:04:55;;;;;;;;;;;;;;;18.21;40.92;100576.25;7245116;19;154568;-55
2022/12/12 07:07:22;;;;;;;;;;;;;;;18.27;40.89;100582.56;7238955;19;154470;-55
2022/12/12 07:09:48;;;;;;;;;;;;;;;18.32;40.92;100585.31;7246754;19;154451;-55
2022/12/12 07:12:15;;;;;;;;;;;;;;;18.38;40.78;100595.28;7242761;19;152843;-55
2022/12/12 07:14:42;;;;;;;;;;;;;;;18.43;40.98;100590.47;7245056;19;154274;-56
2022/12/12 07:17:08;;;;;;;;;;;;;;;18.48;40.63;100592.34;7243862;19;153364;-55
2022/12/12 07:19:35;;;;;;;;;;;;;;;18.55;41.06;100592.81;7244559;19;154342;-55
2022/12/12 07:22:02;;;;;;;;;;;;;;;18.59;40.65;100594.69;7240011;19;153940;-55
2022/12/12 07:24:35;;;;;;;;;;;;;;;18.63;40.21;100601.34;7256979;19;152662;-55
2022/12/12 07:27:02;;;;;;;;;;;;;;;18.69;40.01;100598.47;7249750;19;153543;-55
2022/12/12 07:29:29;;;;;;;;;;;;;;;18.74;40.23;100602.03;7252014;19;153582;-55
2022/12/12 07:31:55;;;;;;;;;;;;;;;18.79;39.59;100601.09;7252298;19;154433;-55
2022/12/12 07:34:22;;;;;;;;;;;;;;;18.83;39.46;100603.00;7248537;19;153812;-55
2022/12/12 07:36:50;;;;;;;;;;;;;;;18.87;39.40;100603.22;7247597;19;153760;-55
2022/12/12 07:39:16;;;;;;;;;;;;;;;18.91;39.16;100602.28;7252622;19;153607;-55
2022/12/12 07:41:46;;;;;;;;;;;;;;;18.95;39.33;100599.69;7248439;19;153752;-56
2022/12/12 07:44:20;;;;;;;;;;;;;;;19.00;39.24;100603.25;7249514;19;154034;-55
2022/12/12 07:46:47;;;;;;;;;;;;;;;19.04;38.75;100600.66;7254121;19;153782;-55
2022/12/12 07:49:14;;;;;;;;;;;;;;;19.06;38.88;100604.84;7254544;19;153449;-55
2022/12/12 07:51:41;;;;;;;;;;;;;;;19.12;38.78;100605.59;7248340;19;153792;-55
2022/12/12 07:54:18;;;;;;;;;;;;;;;19.15;38.54;100607.75;7249601;19;153868;-55
2022/12/12 07:56:44;;;;;;;;;;;;;;;19.18;38.43;100606.31;7248220;19;153737;-55
2022/12/12 07:59:11;;;;;;;;;;;;;;;19.23;38.50;100611.81;7249065;19;154898;-55
2022/12/12 08:01:38;;;;;;;;;;;;;;;19.12;37.21;100614.00;7250692;19;154515;-55
2022/12/12 08:04:05;;;;;;;;;;;;;;;19.17;36.76;100627.88;7250121;19;154885;-55
2022/12/12 08:06:32;;;;;;;;;;;;;;;19.20;36.69;100629.25;7248540;19;153086;-55
2022/12/12 08:08:58;;;;;;;;;;;;;;;19.23;36.55;100634.22;7257293;19;155056;-55
2022/12/12 08:11:26;;;;;;;;;;;;;;;19.26;36.46;100630.81;7249476;19;155307;-55
2022/12/12 08:13:53;;;;;;;;;;;;;;;19.28;36.37;100636.94;7249853;19;154793;-55
2022/12/12 08:16:24;;;;;;;;;;;;;;;19.28;36.42;100642.53;7248609;19;153053;-54
2022/12/12 08:18:54;;;;;;;;;;;;;;;19.29;36.40;100638.59;7251543;19;155659;-54
2022/12/12 08:21:21;;;;;;;;;;;;;;;19.29;36.79;100645.03;7245941;19;153395;-54
2022/12/12 08:23:54;;;;;;;;;;;;;;;19.30;36.64;100640.28;7250415;19;153245;-54
2022/12/12 08:26:21;;;;;;;;;;;;;;;19.32;36.69;100647.22;7250456;19;153378;-54
2022/12/12 08:28:48;;;;;;;;;;;;;;;19.34;36.41;100656.16;7250026;19;153521;-54
2022/12/12 08:31:15;;;;;;;;;;;;;;;19.36;36.25;100653.84;7258000;19;154522;-54
2022/12/12 08:33:42;;;;;;;;;;;;;;;19.37;36.54;100661.13;7249297;19;154425;-54
2022/12/12 08:36:20;;;;;;;;;;;;;;;19.40;36.21;100656.88;7245133;19;153267;-54
2022/12/12 08:38:46;;;;;;;;;;;;;;;19.45;36.01;100656.81;7251634;19;154163;-56
2022/12/12 08:41:14;;;;;;;;;;;;;;;19.50;36.52;100657.56;7249095;19;153734;-54
2022/12/12 08:43:41;;;;;;;;;;;;;;;19.52;36.31;100651.66;7247479;19;152679;-54
2022/12/12 08:46:09;;;;;;;;;;;;;;;19.54;36.22;100652.16;7248436;19;154337;-55
2022/12/12 08:48:42;;;;;;;;;;;;;;;19.53;36.04;100659.72;7248748;19;152951;-55
2022/12/12 08:51:09;;;;;;;;;;;;;;;19.56;36.03;100657.47;7254243;19;154866;-54
2022/12/12 08:53:36;;;;;;;;;;;;;;;19.55;36.26;100656.63;7249323;19;153563;-54
2022/12/12 08:56:02;;;;;;;;;;;;;;;19.55;36.21;100656.63;7248786;19;153598;-54
2022/12/12 08:58:29;;;;;;;;;;;;;;;19.56;36.14;100661.09;7250520;19;153793;-54
2022/12/12 09:00:56;;;;;;;;;;;;;;;19.57;35.77;100659.97;7245487;19;153966;-54
2022/12/12 09:03:24;;;;;;;;;;;;;;;19.58;35.95;100656.00;7249451;19;153589;-54
2022/12/12 09:05:55;;;;;;;;;;;;;;;19.60;35.89;100650.94;7245226;19;153223;-54
2022/12/12 09:08:21;;;;;;;;;;;;;;;19.61;35.81;100648.97;7246122;19;155112;-54
2022/12/12 09:10:49;;;;;;;;;;;;;;;19.63;35.91;100658.72;7247412;19;152667;-54
2022/12/12 09:13:16;;;;;;;;;;;;;;;19.65;35.57;100653.63;7264720;19;154297;-54
2022/12/12 09:15:43;;;;;;;;;;;;;;;19.66;35.58;100646.06;7252987;19;154849;-54
2022/12/12 09:18:09;;;;;;;;;;;;;;;19.67;35.45;100651.34;7252354;19;153340;-54
2022/12/12 09:20:36;;;;;;;;;;;;;;;19.69;35.33;100654.69;7250306;19;154389;-54
2022/12/12 09:23:02;;;;;;;;;;;;;;;19.70;35.46;100653.53;7251125;19;154037;-54
2022/12/12 09:25:29;;;;;;;;;;;;;;;19.72;35.51;100651.25;7249126;19;154127;-54
2022/12/12 09:27:56;;;;;;;;;;;;;;;19.74;35.41;100659.34;7247661;19;153422;-54
2022/12/12 09:30:23;;;;;;;;;;;;;;;19.74;35.14;100648.97;7250663;19;154328;-54
2022/12/12 09:32:49;;;;;;;;;;;;;;;19.76;35.30;100654.28;7249478;19;153650;-54
2022/12/12 09:35:16;;;;;;;;;;;;;;;19.78;35.42;100654.78;7254479;19;154119;-54
2022/12/12 09:37:43;;;;;;;;;;;;;;;19.78;35.21;100652.81;7245384;19;153361;-56
2022/12/12 09:40:15;;;;;;;;;;;;;;;19.80;35.00;100655.31;7249135;19;156113;-56
2022/12/12 09:42:46;;;;;;;;;;;;;;;19.81;35.03;100652.19;7248858;19;153552;-56
2022/12/12 09:45:13;;;;;;;;;;;;;;;19.82;35.24;100658.63;7250896;19;153655;-56
2022/12/12 09:47:48;;;;;;;;;;;;;;;19.83;35.13;100655.53;7242677;19;153502;-56
2022/12/12 09:50:33;;;;;;;;;;;;;;;19.85;34.79;100658.84;7254915;19;154189;-56
2022/12/12 09:53:01;;;;;;;;;;;;;;;19.86;35.14;100657.69;7244000;19;154044;-55
2022/12/12 09:55:38;;;;;;;;;;;;;;;19.87;34.62;100664.97;7246418;19;154666;-56
2022/12/12 09:58:20;;;;;;;;;;;;;;;19.88;34.94;100661.03;7255137;19;154246;-56
2022/12/12 10:01:10;;;;;;;;;;;;;;;19.90;34.65;100657.91;7247321;19;154348;-56
2022/12/12 10:03:40;;;;;;;;;;;;;;;19.90;34.68;100658.72;7252608;19;152988;-56
2022/12/12 10:06:08;;;;;;;;;;;;;;;19.92;34.83;100652.81;7245244;19;154619;-56
2022/12/12 10:09:06;;;;;;;;;;;;;;;19.92;34.88;100656.47;7250216;19;153266;-58
2022/12/12 10:11:53;;;;;;;;;;;;;;;19.93;34.49;100654.50;7229412;19;153837;-55
2022/12/12 10:14:55;;;;;;;;;;;;;;;19.92;34.62;100647.22;7242936;19;154558;-55
2022/12/12 10:18:01;;;;;;;;;;;;;;;19.93;34.51;100663.75;7240457;19;152958;-55
2022/12/12 10:20:52;;;;;;;;;;;;;;;19.95;34.22;100667.03;7245203;19;152836;-55
2022/12/12 10:24:00;;;;;;;;;;;;;;;19.95;34.40;100655.84;7253057;19;153902;-55
2022/12/12 10:26:49;;;;;;;;;;;;;;;19.95;34.40;100655.84;7247446;19;153525;-55
2022/12/12 10:29:51;;;;;;;;;;;;;;;19.95;34.02;100664.25;7249241;19;154169;-55
2022/12/12 10:32:36;;;;;;;;;;;;;;;19.92;34.39;100662.06;7245022;19;155465;-55
2022/12/12 10:35:20;;;;;;;;;;;;;;;19.93;33.94;100660.09;7245019;19;154292;-56
2022/12/12 10:38:10;;;;;;;;;;;;;;;19.90;33.87;100660.69;7240774;19;154364;-56
2022/12/12 10:40:37;;;;;;;;;;;;;;;19.88;34.07;100660.19;7243643;19;154633;-54
2022/12/12 10:43:07;;;;;;;;;;;;;;;19.87;34.17;100661.34;7242730;19;153689;-54
2022/12/12 10:45:43;;;;;;;;;;;;;;;19.86;34.12;100656.88;7245170;19;153058;-54
2022/12/12 10:48:10;;;;;;;;;;;;;;;19.85;34.32;100658.84;7249259;19;153346;-55
2022/12/12 10:50:40;;;;;;;;;;;;;;;19.85;34.15;100656.03;7241469;19;153070;-54
2022/12/12 10:53:08;;;;;;;;;;;;;;;19.86;34.23;100654.06;7241428;19;153515;-54
2022/12/12 10:55:38;;;;;;;;;;;;;;;19.86;34.40;100656.88;7243113;19;152352;-54
2022/12/12 10:58:05;;;;;;;;;;;;;;;19.85;34.21;100656.03;7244144;19;154596;-54
2022/12/12 11:00:36;;;;;;;;;;;;;;;19.86;34.61;100649.28;7244341;19;153983;-55
2022/12/12 11:03:20;;;;;;;;;;;;;;;19.86;34.40;100648.44;7245188;19;153774;-54
2022/12/12 11:05:47;;;;;;;;;;;;;;;19.87;34.60;100656.56;7241264;19;154199;-54
2022/12/12 11:08:18;;;;;;;;;;;;;;;19.88;34.34;100660.19;7247545;19;152636;-55
2022/12/12 11:10:58;;;;;;;;;;;;;;;19.88;34.21;100640.56;7241512;19;153183;-54
2022/12/12 11:13:24;;;;;;;;;;;;;;;19.90;34.21;100644.72;7237988;19;155625;-55
2022/12/12 11:15:55;;;;;;;;;;;;;;;19.92;34.58;100644.41;7241330;19;153158;-54
2022/12/12 11:18:23;;;;;;;;;;;;;;;19.92;34.53;100645.25;7244079;19;153177;-54
2022/12/12 11:20:51;;;;;;;;;;;;;;;19.93;34.44;100638.50;7240716;19;154468;-54
2022/12/12 11:23:26;;;;;;;;;;;;;;;19.95;34.64;100641.81;7242358;19;152720;-54
2022/12/12 11:25:54;;;;;;;;;;;;;;;19.98;34.20;100634.75;7241049;19;153317;-54
2022/12/12 11:28:22;;;;;;;;;;;;;;;19.99;34.28;100639.19;7242238;19;153414;-54
2022/12/12 11:30:50;;;;;;;;;;;;;;;20.01;34.13;100634.13;7248864;19;152860;-54
2022/12/12 11:33:20;;;;;;;;;;;;;;;20.03;34.59;100640.28;7241786;19;154450;-54
2022/12/12 11:35:52;;;;;;;;;;;;;;;20.04;34.21;100639.09;7237269;19;154097;-55
2022/12/12 11:38:21;;;;;;;;;;;;;;;20.06;34.18;100636.81;7240130;19;153533;-54
2022/12/12 11:41:01;;;;;;;;;;;;;;;20.08;34.05;100630.91;7240280;19;154582;-54
2022/12/12 11:43:29;;;;;;;;;;;;;;;20.09;34.38;100632.56;7240769;19;153200;-54
2022/12/12 11:46:07;;;;;;;;;;;;;;;20.12;34.10;100637.56;7238205;19;153960;-54
2022/12/12 11:48:46;;;;;;;;;;;;;;;20.13;34.12;100640.03;7240801;19;154014;-54
2022/12/12 11:51:14;;;;;;;;;;;;;;;20.16;33.78;100649.81;7239716;19;153580;-55
2022/12/12 11:53:43;;;;;;;;;;;;;;;20.17;34.17;100643.06;7246129;19;155088;-54
2022/12/12 11:56:26;;;;;;;;;;;;;;;20.18;33.99;100647.50;7240361;19;153821;-54
2022/12/12 11:58:52;;;;;;;;;;;;;;;20.17;33.80;100643.88;7244101;19;155095;-55
2022/12/12 12:01:26;;;;;;;;;;;;;;;20.18;33.95;100641.91;7241224;19;154367;-54
2022/12/12 12:04:16;;;;;;;;;;;;;;;20.17;33.80;100643.88;7244217;19;154044;-54
2022/12/12 12:06:43;;;;;;;;;;;;;;;20.18;33.81;100636.28;7238194;19;153764;-54
2022/12/12 12:09:36;;;;;;;;;;;;;;;20.18;33.74;100639.09;7245199;19;156594;-54
2022/12/12 12:12:11;;;;;;;;;;;;;;;20.20;33.79;100645.22;7246261;19;153292;-55
2022/12/12 12:14:51;;;;;;;;;;;;;;;20.19;34.07;100644.41;7249494;19;154250;-55
2022/12/12 12:17:20;;;;;;;;;;;;;;;20.20;33.61;100642.44;7251682;19;154327;-54
2022/12/12 12:19:47;;;;;;;;;;;;;;;20.22;33.70;100634.50;7249889;19;153309;-54
2022/12/12 12:22:14;;;;;;;;;;;;;;;20.25;33.73;100631.09;7247567;19;154654;-54
2022/12/12 12:25:07;;;;;;;;;;;;;;;20.25;33.76;100642.31;7257383;19;154022;-55
2022/12/12 12:27:44;;;;;;;;;;;;;;;20.27;33.75;100631.59;7232855;19;156382;-55
2022/12/12 12:30:20;;;;;;;;;;;;;;;20.27;33.96;100634.41;7247359;19;153417;-55
2022/12/12 12:33:05;;;;;;;;;;;;;;;20.29;33.59;100637.72;7246925;19;153694;-55
2022/12/12 12:35:39;;;;;;;;;;;;;;;20.29;34.00;100630.16;7251440;19;153954;-55
2022/12/12 12:38:15;;;;;;;;;;;;;;;20.31;33.60;100629.84;7249874;19;153551;-55
2022/12/12 12:40:57;;;;;;;;;;;;;;;20.33;33.62;100621.97;7256902;19;154307;-55
2022/12/12 12:43:30;;;;;;;;;;;;;;;20.34;33.66;100609.59;7249117;19;154183;-55
2022/12/12 12:46:06;;;;;;;;;;;;;;;20.35;33.85;100605.66;7247699;19;153232;-55
2022/12/12 12:48:38;;;;;;;;;;;;;;;20.36;33.77;100610.09;7250765;19;153675;-55
2022/12/12 12:51:24;;;;;;;;;;;;;;;20.37;33.45;100606.16;7245948;19;154156;-55
2022/12/12 12:54:06;;;;;;;;;;;;;;;20.39;33.57;100609.47;7248465;19;153396;-55
2022/12/12 12:56:46;;;;;;;;;;;;;;;20.39;33.53;100603.88;7246859;19;154260;-55
2022/12/12 12:59:16;;;;;;;;;;;;;;;20.41;33.52;100602.41;7247107;19;154862;-55